createdAt,value
2022-12-28T00:00:47.264Z,3.35
2022-12-28T00:03:49.593Z,3.39
2022-12-28T00:06:51.533Z,3.45
2022-12-28T00:09:53.239Z,3.52
2022-12-28T00:12:54.911Z,3.49
2022-12-28T00:15:56.930Z,3.45
2022-12-28T00:19:00.577Z,3.42
2022-12-28T00:22:02.220Z,3.34
2022-12-28T00:25:04.113Z,3.34
2022-12-28T00:28:05.779Z,3.35
2022-12-28T00:31:07.614Z,3.34
2022-12-28T00:34:09.480Z,3.27
2022-12-28T00:37:13.253Z,3.20
2022-12-28T00:40:20.385Z,3.16
2022-12-28T00:43:25.939Z,3.19
2022-12-28T00:46:27.522Z,3.22
2022-12-28T00:49:29.296Z,3.21
2022-12-28T00:52:30.977Z,3.26
2022-12-28T00:55:33.669Z,3.22
2022-12-28T00:58:35.912Z,3.34
2022-12-28T01:01:38.257Z,3.34
2022-12-28T01:04:40.035Z,3.35
2022-12-28T01:07:42.249Z,3.43
2022-12-28T01:10:43.959Z,3.49
2022-12-28T01:13:46.332Z,3.49
2022-12-28T01:16:48.184Z,3.58
2022-12-28T01:19:54.018Z,3.65
2022-12-28T01:22:56.402Z,3.65
2022-12-28T01:26:02.257Z,3.66
2022-12-28T01:29:04.167Z,3.64
2022-12-28T01:32:07.514Z,3.65
2022-12-28T01:35:09.376Z,3.67
2022-12-28T01:38:10.917Z,3.69
2022-12-28T01:41:15.645Z,3.78
2022-12-28T01:44:17.172Z,3.81
2022-12-28T01:47:24.213Z,3.85
2022-12-28T01:50:28.513Z,3.83
2022-12-28T01:53:30.728Z,3.87
2022-12-28T01:56:32.324Z,3.89
2022-12-28T01:59:39.304Z,3.92
2022-12-28T02:02:46.182Z,3.87
2022-12-28T02:05:57.357Z,3.85
2022-12-28T02:09:35.661Z,3.88
2022-12-28T02:12:38.116Z,3.85
2022-12-28T02:15:41.400Z,3.85
2022-12-28T02:18:45.041Z,3.97
2022-12-28T02:22:10.903Z,4.00
2022-12-28T02:25:26.801Z,4.02
2022-12-28T02:28:57.571Z,4.08
2022-12-28T02:32:15.286Z,4.17
2022-12-28T02:35:51.672Z,4.18
2022-12-28T02:39:05.532Z,4.17
2022-12-28T02:42:09.887Z,4.19
2022-12-28T02:45:55.305Z,4.28
2022-12-28T02:49:15.589Z,4.27
2022-12-28T02:52:26.354Z,4.33
2022-12-28T02:56:09.391Z,4.33
2022-12-28T02:59:43.654Z,4.29
2022-12-28T03:03:22.520Z,4.24
2022-12-28T03:07:08.402Z,4.16
2022-12-28T03:10:31.552Z,4.13
2022-12-28T03:13:52.086Z,4.00
2022-12-28T03:17:19.798Z,3.97
2022-12-28T03:20:44.028Z,3.91
2022-12-28T03:24:06.997Z,3.89
2022-12-28T03:27:31.983Z,3.97
2022-12-28T03:30:55.400Z,4.02
2022-12-28T03:34:06.897Z,4.08
2022-12-28T03:37:25.933Z,4.12
2022-12-28T03:40:42.551Z,4.14
2022-12-28T03:43:52.488Z,4.15
2022-12-28T03:47:04.707Z,4.11
2022-12-28T03:50:06.922Z,4.04
2022-12-28T03:53:09.850Z,3.98
2022-12-28T03:56:24.095Z,3.98
2022-12-28T03:59:28.554Z,4.03
2022-12-28T04:02:31.719Z,3.97
2022-12-28T04:05:33.598Z,3.96
2022-12-28T04:08:35.575Z,3.90
2022-12-28T04:11:40.227Z,3.87
2022-12-28T04:14:44.882Z,3.85
2022-12-28T04:17:47.245Z,3.93
2022-12-28T04:20:49.013Z,3.96
2022-12-28T04:23:50.674Z,4.01
2022-12-28T04:26:55.718Z,4.06
2022-12-28T04:29:57.702Z,4.18
2022-12-28T04:32:59.526Z,4.23
2022-12-28T04:36:11.570Z,4.21
2022-12-28T04:39:13.465Z,4.10
2022-12-28T04:42:15.202Z,4.01
2022-12-28T04:45:21.716Z,4.14
2022-12-28T04:48:24.041Z,4.19
2022-12-28T04:51:28.717Z,4.37
2022-12-28T04:54:30.518Z,4.57
2022-12-28T04:57:32.144Z,4.63
2022-12-28T05:00:33.916Z,4.71
2022-12-28T05:03:37.045Z,4.76
2022-12-28T05:06:38.766Z,4.74
2022-12-28T05:09:40.545Z,4.86
2022-12-28T05:12:42.267Z,4.86
2022-12-28T05:15:43.994Z,4.85
2022-12-28T05:18:45.849Z,4.93
2022-12-28T05:21:47.535Z,4.88
2022-12-28T05:24:49.332Z,4.93
2022-12-28T05:27:50.970Z,4.93
2022-12-28T05:30:53.745Z,4.88
2022-12-28T05:33:55.693Z,4.87
2022-12-28T05:36:57.360Z,4.83
2022-12-28T05:39:59.011Z,4.79
2022-12-28T05:43:00.780Z,4.76
2022-12-28T05:46:08.039Z,4.70
2022-12-28T05:49:09.874Z,4.71
2022-12-28T05:52:11.635Z,4.70
2022-12-28T05:55:13.495Z,4.70
2022-12-28T05:58:15.270Z,4.74
2022-12-28T06:01:19.438Z,4.79
2022-12-28T06:04:21.584Z,4.79
2022-12-28T06:07:23.391Z,4.78
2022-12-28T06:10:25.028Z,4.85
2022-12-28T06:13:26.640Z,4.91
2022-12-28T06:16:30.911Z,4.94
2022-12-28T06:19:32.808Z,4.90
2022-12-28T06:22:34.697Z,4.85
2022-12-28T06:25:37.885Z,4.80
2022-12-28T06:28:40.513Z,4.72
2022-12-28T06:31:51.428Z,4.66
2022-12-28T06:34:53.176Z,4.65
2022-12-28T06:37:54.877Z,4.61
2022-12-28T06:41:13.392Z,4.64
2022-12-28T06:44:16.072Z,4.70
2022-12-28T06:47:17.800Z,4.72
2022-12-28T06:50:19.469Z,4.75
2022-12-28T06:53:21.179Z,4.73
2022-12-28T06:56:28.465Z,4.72
2022-12-28T06:59:30.268Z,4.72
2022-12-28T07:02:31.926Z,4.71
2022-12-28T07:05:33.718Z,4.68
2022-12-28T07:08:35.700Z,4.73
2022-12-28T07:11:37.440Z,4.76
2022-12-28T07:14:39.711Z,4.75
2022-12-28T07:17:41.380Z,4.76
2022-12-28T07:20:42.883Z,4.80
2022-12-28T07:23:44.916Z,4.79
2022-12-28T07:26:46.501Z,4.85
2022-12-28T07:29:48.805Z,4.83
2022-12-28T07:32:50.530Z,4.85
2022-12-28T07:35:52.163Z,4.85
2022-12-28T07:38:53.955Z,4.88
2022-12-28T07:41:55.734Z,4.92
2022-12-28T07:44:57.392Z,4.86
2022-12-28T07:47:59.133Z,4.91
2022-12-28T07:51:29.684Z,5.02
2022-12-28T07:54:31.930Z,5.07
2022-12-28T07:57:34.455Z,5.13
2022-12-28T08:00:37.016Z,5.18
2022-12-28T08:03:40.087Z,5.22
2022-12-28T08:06:43.079Z,5.25
2022-12-28T08:09:44.771Z,5.23
2022-12-28T08:12:46.419Z,5.31
2022-12-28T08:15:55.215Z,5.35
2022-12-28T08:18:57.076Z,5.38
2022-12-28T08:21:58.868Z,5.35
2022-12-28T08:25:00.671Z,5.38
2022-12-28T08:28:02.515Z,5.43
2022-12-28T08:31:20.199Z,5.49
2022-12-28T08:34:27.142Z,5.49
2022-12-28T08:37:29.159Z,5.53
2022-12-28T08:40:30.980Z,5.59
2022-12-28T08:43:34.230Z,5.67
2022-12-28T08:46:37.022Z,5.70
2022-12-28T08:49:39.069Z,5.74
2022-12-28T08:52:40.964Z,5.83
2022-12-28T08:55:42.746Z,5.90
2022-12-28T08:58:45.915Z,5.96
2022-12-28T09:01:48.209Z,5.93
2022-12-28T09:04:50.125Z,5.99
2022-12-28T09:07:59.454Z,6.01
2022-12-28T09:11:06.006Z,6.10
2022-12-28T09:14:10.297Z,6.11
2022-12-28T09:17:12.086Z,6.12
2022-12-28T09:20:13.754Z,6.12
2022-12-28T09:23:15.399Z,6.14
2022-12-28T09:26:25.983Z,6.07
2022-12-28T09:29:28.184Z,6.13
2022-12-28T09:32:29.992Z,6.13
2022-12-28T09:35:31.836Z,6.27
2022-12-28T09:38:33.965Z,6.34
2022-12-28T09:41:41.249Z,6.45
2022-12-28T09:45:01.046Z,6.52
2022-12-28T09:48:15.052Z,6.63
2022-12-28T09:51:17.688Z,6.73
2022-12-28T09:54:20.116Z,6.83
2022-12-28T09:57:24.043Z,6.87
2022-12-28T10:00:31.526Z,6.96
2022-12-28T10:03:40.598Z,6.99
2022-12-28T10:06:43.773Z,7.07
2022-12-28T10:09:46.484Z,7.12
2022-12-28T10:12:49.544Z,7.22
2022-12-28T10:15:52.347Z,7.27
2022-12-28T10:18:54.395Z,7.27
2022-12-28T10:22:02.743Z,7.16
2022-12-28T10:25:14.416Z,6.94
2022-12-28T10:28:21.670Z,6.77
2022-12-28T10:31:36.645Z,6.83
2022-12-28T10:34:54.953Z,7.02
2022-12-28T10:38:07.679Z,7.14
2022-12-28T10:41:12.555Z,7.17
2022-12-28T10:44:39.406Z,7.19
2022-12-28T10:47:46.881Z,7.28
2022-12-28T10:50:51.790Z,7.36
2022-12-28T10:53:55.729Z,7.40
2022-12-28T10:56:57.584Z,7.44
2022-12-28T11:00:20.613Z,7.46
2022-12-28T11:03:35.506Z,7.53
2022-12-28T11:07:00.234Z,7.59
2022-12-28T11:10:28.499Z,7.64
2022-12-28T11:13:30.518Z,7.74
2022-12-28T11:16:36.921Z,7.84
2022-12-28T11:19:38.715Z,7.91
2022-12-28T11:22:40.345Z,7.87
2022-12-28T11:25:42.125Z,7.91
2022-12-28T11:28:46.044Z,7.95
2022-12-28T11:32:11.520Z,7.97
2022-12-28T11:35:26.611Z,7.96
2022-12-28T11:38:39.324Z,7.99
2022-12-28T11:41:56.071Z,7.99
2022-12-28T11:45:06.955Z,7.98
2022-12-28T11:48:43.143Z,7.86
2022-12-28T11:51:44.825Z,7.78
2022-12-28T11:55:02.905Z,7.74
2022-12-28T11:58:42.401Z,7.72
2022-12-28T12:01:45.329Z,7.67
2022-12-28T12:04:47.466Z,7.60
2022-12-28T12:07:49.441Z,7.58
2022-12-28T12:11:33.111Z,7.60
2022-12-28T12:14:59.172Z,7.59
2022-12-28T12:18:04.278Z,7.59
2022-12-28T12:21:15.527Z,7.53
2022-12-28T12:24:57.960Z,7.57
2022-12-28T12:28:06.594Z,7.63
2022-12-28T12:31:14.613Z,7.59
2022-12-28T12:34:45.193Z,7.52
2022-12-28T12:37:53.077Z,7.44
2022-12-28T12:41:20.787Z,7.37
2022-12-28T12:44:37.794Z,7.32
2022-12-28T12:47:58.126Z,7.34
2022-12-28T12:51:18.386Z,7.40
2022-12-28T12:54:41.954Z,7.45
2022-12-28T12:58:03.272Z,7.52
2022-12-28T13:01:42.289Z,7.53
2022-12-28T13:04:50.627Z,7.50
2022-12-28T13:07:56.677Z,7.57
2022-12-28T13:10:58.571Z,7.60
2022-12-28T13:14:00.218Z,7.63
2022-12-28T13:17:01.903Z,7.72
2022-12-28T13:20:09.607Z,7.65
2022-12-28T13:23:20.196Z,7.66
2022-12-28T13:26:28.106Z,7.63
2022-12-28T13:29:39.201Z,7.70
2022-12-28T13:33:04.003Z,7.67
2022-12-28T13:36:19.395Z,7.70
2022-12-28T13:39:21.732Z,7.67
2022-12-28T13:42:32.115Z,7.64
2022-12-28T13:45:34.488Z,7.65
2022-12-28T13:48:45.254Z,7.63
2022-12-28T13:51:54.713Z,7.63
2022-12-28T13:55:00.500Z,7.59
2022-12-28T13:58:22.825Z,7.56
2022-12-28T14:01:29.503Z,7.51
2022-12-28T14:07:56.220Z,7.44
2022-12-28T14:10:58.455Z,7.45
2022-12-28T14:14:00.425Z,7.46
2022-12-28T14:17:03.219Z,7.51
2022-12-28T14:20:05.766Z,7.52
2022-12-28T14:23:26.773Z,7.45
2022-12-28T14:26:30.328Z,7.46
2022-12-28T14:29:36.122Z,7.42
2022-12-28T14:32:42.898Z,7.39
2022-12-28T14:36:00.176Z,7.42
2022-12-28T14:39:05.307Z,7.42
2022-12-28T14:42:20.524Z,7.36
2022-12-28T14:46:07.351Z,7.33
2022-12-28T14:49:26.730Z,7.26
2022-12-28T14:52:28.546Z,7.21
2022-12-28T14:55:39.316Z,7.16
2022-12-28T14:58:51.063Z,7.14
2022-12-28T15:02:41.155Z,7.23
2022-12-28T15:05:46.013Z,7.24
2022-12-28T15:08:49.474Z,7.21
2022-12-28T15:12:09.496Z,7.21
2022-12-28T15:15:11.976Z,7.27
2022-12-28T15:18:13.845Z,7.27
2022-12-28T15:21:19.041Z,7.32
2022-12-28T15:24:23.720Z,7.36
2022-12-28T15:27:27.087Z,7.39
2022-12-28T15:30:29.292Z,7.29
2022-12-28T15:33:31.286Z,7.26
2022-12-28T15:36:33.788Z,7.16
2022-12-28T15:39:35.525Z,7.08
2022-12-28T15:42:40.545Z,7.04
2022-12-28T15:45:42.663Z,6.98
2022-12-28T15:48:47.716Z,6.90
2022-12-28T15:51:49.766Z,6.85
2022-12-28T15:54:51.573Z,6.82
2022-12-28T15:57:53.209Z,6.78
2022-12-28T16:00:55.406Z,6.80
2022-12-28T16:04:09.216Z,6.79
2022-12-28T16:07:10.985Z,6.76
2022-12-28T16:10:12.640Z,6.75
2022-12-28T16:13:14.209Z,6.71
2022-12-28T16:16:17.113Z,6.70
2022-12-28T16:19:19.274Z,6.67
2022-12-28T16:22:21.481Z,6.61
2022-12-28T16:25:23.558Z,6.59
2022-12-28T16:28:27.124Z,6.60
2022-12-28T16:31:34.889Z,6.66
2022-12-28T16:34:36.571Z,6.66
2022-12-28T16:37:40.379Z,6.65
2022-12-28T16:40:43.855Z,6.65
2022-12-28T16:43:46.714Z,6.68
2022-12-28T16:46:49.339Z,6.74
2022-12-28T16:49:51.093Z,6.74
2022-12-28T16:52:52.999Z,6.74
2022-12-28T16:55:55.466Z,6.76
2022-12-28T16:58:58.489Z,6.73
2022-12-28T17:02:00.360Z,6.76
2022-12-28T17:05:02.230Z,6.75
2022-12-28T17:08:04.833Z,6.73
2022-12-28T17:11:08.243Z,6.71
2022-12-28T17:14:11.853Z,6.70
2022-12-28T17:17:13.552Z,6.71
2022-12-28T17:20:15.261Z,6.69
2022-12-28T17:23:17.395Z,6.71
2022-12-28T17:26:19.368Z,6.77
2022-12-28T17:29:21.545Z,6.78
2022-12-28T17:32:24.264Z,6.81
2022-12-28T17:35:27.886Z,6.77
2022-12-28T17:38:29.959Z,6.75
2022-12-28T17:41:31.905Z,6.75
2022-12-28T17:44:33.979Z,6.72
2022-12-28T17:47:35.902Z,6.73
2022-12-28T17:50:42.358Z,6.73
2022-12-28T17:53:44.473Z,6.69
2022-12-28T17:56:46.212Z,6.65
2022-12-28T17:59:47.909Z,6.68
2022-12-28T18:02:50.013Z,6.69
2022-12-28T18:05:53.170Z,6.62
2022-12-28T18:08:55.030Z,6.63
2022-12-28T18:11:56.748Z,6.62
2022-12-28T18:14:58.468Z,6.65
2022-12-28T18:18:00.949Z,6.69
2022-12-28T18:21:05.860Z,6.65
2022-12-28T18:24:11.750Z,6.73
2022-12-28T18:27:13.393Z,6.69
2022-12-28T18:30:15.479Z,6.71
2022-12-28T18:33:17.227Z,6.77
2022-12-28T18:36:19.041Z,6.83
2022-12-28T18:39:20.753Z,6.88
2022-12-28T18:42:22.528Z,6.88
2022-12-28T18:45:24.296Z,6.90
2022-12-28T18:48:27.217Z,6.95
2022-12-28T18:51:29.748Z,6.84
2022-12-28T18:54:31.903Z,6.81
2022-12-28T18:57:33.782Z,6.94
2022-12-28T19:00:38.633Z,6.94
2022-12-28T19:03:41.036Z,6.90
2022-12-28T19:06:43.584Z,6.90
2022-12-28T19:10:12.024Z,6.91
2022-12-28T19:13:15.231Z,6.97
2022-12-28T19:16:23.201Z,7.07
2022-12-28T19:19:33.223Z,7.10
2022-12-28T19:22:35.092Z,7.09
2022-12-28T19:25:39.685Z,7.07
2022-12-28T19:28:41.603Z,7.00
2022-12-28T19:31:43.572Z,6.91
2022-12-28T19:34:45.195Z,6.82
2022-12-28T19:37:47.049Z,6.74
2022-12-28T19:40:48.799Z,6.69
2022-12-28T19:43:50.908Z,6.60
2022-12-28T19:46:54.091Z,6.61
2022-12-28T19:49:56.929Z,6.61
2022-12-28T19:52:58.650Z,6.64
2022-12-28T19:56:06.307Z,6.63
2022-12-28T19:59:08.393Z,6.59
2022-12-28T20:02:11.653Z,6.60
2022-12-28T20:05:13.361Z,6.60
2022-12-28T20:08:15.182Z,6.56
2022-12-28T20:11:18.767Z,6.55
2022-12-28T20:14:24.979Z,6.50
2022-12-28T20:17:27.308Z,6.50
2022-12-28T20:20:40.683Z,6.49
2022-12-28T20:23:52.572Z,6.50
2022-12-28T20:26:59.692Z,6.50
2022-12-28T20:30:03.789Z,6.45
2022-12-28T20:33:06.850Z,6.49
2022-12-28T20:36:12.867Z,6.44
2022-12-28T20:39:14.843Z,6.45
2022-12-28T20:42:34.904Z,6.54
2022-12-28T20:45:36.813Z,6.51
2022-12-28T20:48:38.763Z,6.50
2022-12-28T20:51:42.490Z,6.52
2022-12-28T20:54:46.366Z,6.45
2022-12-28T20:57:48.115Z,6.50
2022-12-28T21:00:50.016Z,6.53
2022-12-28T21:03:51.942Z,6.53
2022-12-28T21:06:54.228Z,6.57
2022-12-28T21:09:56.003Z,6.57
2022-12-28T21:12:57.699Z,6.56
2022-12-28T21:16:04.817Z,6.59
2022-12-28T21:19:06.541Z,6.59
2022-12-28T21:22:08.161Z,6.57
2022-12-28T21:25:11.134Z,6.58
2022-12-28T21:28:12.893Z,6.61
2022-12-28T21:31:21.839Z,6.62
2022-12-28T21:34:23.840Z,6.66
2022-12-28T21:37:37.922Z,6.65
2022-12-28T21:40:39.710Z,6.67
2022-12-28T21:43:41.536Z,6.74
2022-12-28T21:46:43.346Z,6.73
2022-12-28T21:49:45.288Z,6.77
2022-12-28T21:52:46.971Z,6.81
2022-12-28T21:55:48.985Z,6.80
2022-12-28T21:58:51.604Z,6.84
2022-12-28T22:02:12.900Z,6.82
2022-12-28T22:05:33.264Z,6.86
2022-12-28T22:08:54.946Z,6.89
2022-12-28T22:12:15.154Z,6.86
2022-12-28T22:15:38.499Z,6.87
2022-12-28T22:19:01.323Z,6.90
2022-12-28T22:22:04.249Z,6.90
2022-12-28T22:25:06.423Z,6.91
2022-12-28T22:28:08.723Z,6.90
2022-12-28T22:31:10.595Z,6.92
2022-12-28T22:34:14.203Z,6.88
2022-12-28T22:37:16.545Z,6.85
2022-12-28T22:40:19.117Z,6.86
2022-12-28T22:43:21.456Z,6.84
2022-12-28T22:46:23.419Z,6.86
2022-12-28T22:49:25.353Z,6.86
2022-12-28T22:52:27.262Z,6.90
2022-12-28T22:55:29.091Z,6.90
2022-12-28T22:58:30.941Z,6.93
2022-12-28T23:01:34.870Z,6.91
2022-12-28T23:04:36.706Z,6.95
2022-12-28T23:07:39.804Z,6.95
2022-12-28T23:10:41.974Z,6.91
2022-12-28T23:13:43.966Z,6.84
2022-12-28T23:16:46.110Z,6.83
2022-12-28T23:20:06.623Z,6.84
2022-12-28T23:23:28.382Z,6.83
2022-12-28T23:26:48.729Z,6.84
2022-12-28T23:29:50.892Z,6.82
2022-12-28T23:32:53.677Z,6.84
2022-12-28T23:35:55.619Z,6.91
2022-12-28T23:38:57.450Z,6.94
2022-12-28T23:41:59.226Z,6.89
2022-12-28T23:45:00.911Z,6.93
2022-12-28T23:48:02.983Z,6.99
2022-12-28T23:51:08.150Z,7.02
2022-12-28T23:54:17.638Z,7.06
2022-12-28T23:57:19.365Z,7.06
